sensor_id;sensor_type;location;lat;lon;timestamp;temperature;humidity
68450;SHT30;67758;39.572;2.652;2024-03-02T00:02:14;10.80;81.43
68450;SHT30;67758;39.572;2.652;2024-03-02T00:04:40;10.79;81.91
68450;SHT30;67758;39.572;2.652;2024-03-02T00:07:06;10.86;82.09
68450;SHT30;67758;39.572;2.652;2024-03-02T00:09:32;10.93;82.07
68450;SHT30;67758;39.572;2.652;2024-03-02T00:12:00;10.88;81.37
68450;SHT30;67758;39.572;2.652;2024-03-02T00:14:27;10.82;80.99
68450;SHT30;67758;39.572;2.652;2024-03-02T00:16:55;10.78;80.57
68450;SHT30;67758;39.572;2.652;2024-03-02T00:19:21;10.64;79.83
68450;SHT30;67758;39.572;2.652;2024-03-02T00:21:47;10.58;79.81
68450;SHT30;67758;39.572;2.652;2024-03-02T00:26:55;10.49;79.91
68450;SHT30;67758;39.572;2.652;2024-03-02T00:29:21;10.46;80.52
68450;SHT30;67758;39.572;2.652;2024-03-02T00:31:47;10.45;80.27
68450;SHT30;67758;39.572;2.652;2024-03-02T00:34:14;10.37;80.07
68450;SHT30;67758;39.572;2.652;2024-03-02T00:36:41;10.35;79.95
68450;SHT30;67758;39.572;2.652;2024-03-02T00:39:07;10.33;79.93
68450;SHT30;67758;39.572;2.652;2024-03-02T00:41:33;10.35;80.14
68450;SHT30;67758;39.572;2.652;2024-03-02T00:44:00;10.25;79.96
68450;SHT30;67758;39.572;2.652;2024-03-02T00:46:33;10.25;80.25
68450;SHT30;67758;39.572;2.652;2024-03-02T00:49:00;10.27;80.29
68450;SHT30;67758;39.572;2.652;2024-03-02T00:51:28;10.22;79.93
68450;SHT30;67758;39.572;2.652;2024-03-02T00:53:57;10.17;79.93
68450;SHT30;67758;39.572;2.652;2024-03-02T00:56:23;10.17;80.10
68450;SHT30;67758;39.572;2.652;2024-03-02T00:58:50;10.13;79.93
68450;SHT30;67758;39.572;2.652;2024-03-02T01:01:15;10.08;79.97
68450;SHT30;67758;39.572;2.652;2024-03-02T01:03:42;10.07;80.08
68450;SHT30;67758;39.572;2.652;2024-03-02T01:06:08;10.05;80.23
68450;SHT30;67758;39.572;2.652;2024-03-02T01:08:38;9.97;80.66
68450;SHT30;67758;39.572;2.652;2024-03-02T01:11:04;10.01;81.17
68450;SHT30;67758;39.572;2.652;2024-03-02T01:13:30;10.03;81.49
68450;SHT30;67758;39.572;2.652;2024-03-02T01:15:56;10.05;81.47
68450;SHT30;67758;39.572;2.652;2024-03-02T01:18:22;10.11;81.58
68450;SHT30;67758;39.572;2.652;2024-03-02T01:20:49;10.18;81.50
68450;SHT30;67758;39.572;2.652;2024-03-02T01:23:18;10.25;81.11
68450;SHT30;67758;39.572;2.652;2024-03-02T01:25:45;10.21;81.10
68450;SHT30;67758;39.572;2.652;2024-03-02T01:28:11;10.14;81.24
68450;SHT30;67758;39.572;2.652;2024-03-02T01:30:37;10.15;81.51
68450;SHT30;67758;39.572;2.652;2024-03-02T01:33:03;10.08;81.77
68450;SHT30;67758;39.572;2.652;2024-03-02T01:35:31;10.04;82.02
68450;SHT30;67758;39.572;2.652;2024-03-02T01:37:56;10.05;82.28
68450;SHT30;67758;39.572;2.652;2024-03-02T01:40:22;10.07;82.48
68450;SHT30;67758;39.572;2.652;2024-03-02T01:42:52;10.03;82.73
68450;SHT30;67758;39.572;2.652;2024-03-02T01:45:18;10.04;82.94
68450;SHT30;67758;39.572;2.652;2024-03-02T01:47:43;10.07;83.29
68450;SHT30;67758;39.572;2.652;2024-03-02T01:50:11;10.13;83.24
68450;SHT30;67758;39.572;2.652;2024-03-02T01:52:37;10.13;83.60
68450;SHT30;67758;39.572;2.652;2024-03-02T01:55:03;10.10;83.83
68450;SHT30;67758;39.572;2.652;2024-03-02T01:57:33;10.14;84.17
68450;SHT30;67758;39.572;2.652;2024-03-02T02:00:00;10.11;84.05
68450;SHT30;67758;39.572;2.652;2024-03-02T02:02:26;10.17;84.34
68450;SHT30;67758;39.572;2.652;2024-03-02T02:04:51;10.05;84.23
68450;SHT30;67758;39.572;2.652;2024-03-02T02:07:17;9.97;84.40
68450;SHT30;67758;39.572;2.652;2024-03-02T02:09:44;9.94;84.50
68450;SHT30;67758;39.572;2.652;2024-03-02T02:12:10;9.94;84.63
68450;SHT30;67758;39.572;2.652;2024-03-02T02:14:36;9.89;84.73
68450;SHT30;67758;39.572;2.652;2024-03-02T02:17:01;9.89;84.89
68450;SHT30;67758;39.572;2.652;2024-03-02T02:19:27;9.87;84.84
68450;SHT30;67758;39.572;2.652;2024-03-02T02:21:54;9.83;85.22
68450;SHT30;67758;39.572;2.652;2024-03-02T02:24:19;9.79;85.24
68450;SHT30;67758;39.572;2.652;2024-03-02T02:26:45;9.89;85.05
68450;SHT30;67758;39.572;2.652;2024-03-02T02:29:11;9.91;84.82
68450;SHT30;67758;39.572;2.652;2024-03-02T02:31:40;9.83;84.98
68450;SHT30;67758;39.572;2.652;2024-03-02T02:34:06;9.86;85.41
68450;SHT30;67758;39.572;2.652;2024-03-02T02:36:37;9.86;85.33
68450;SHT30;67758;39.572;2.652;2024-03-02T02:39:04;9.90;85.59
68450;SHT30;67758;39.572;2.652;2024-03-02T02:41:32;9.80;85.51
68450;SHT30;67758;39.572;2.652;2024-03-02T02:43:58;9.80;85.82
68450;SHT30;67758;39.572;2.652;2024-03-02T02:46:23;9.79;86.08
68450;SHT30;67758;39.572;2.652;2024-03-02T02:48:49;9.79;86.09
68450;SHT30;67758;39.572;2.652;2024-03-02T02:51:16;9.70;86.19
68450;SHT30;67758;39.572;2.652;2024-03-02T02:53:42;9.72;86.34
68450;SHT30;67758;39.572;2.652;2024-03-02T02:56:08;9.76;86.43
68450;SHT30;67758;39.572;2.652;2024-03-02T02:58:33;9.76;86.34
68450;SHT30;67758;39.572;2.652;2024-03-02T03:00:59;9.80;86.60
68450;SHT30;67758;39.572;2.652;2024-03-02T03:03:24;9.84;86.52
68450;SHT30;67758;39.572;2.652;2024-03-02T03:05:50;9.83;86.46
68450;SHT30;67758;39.572;2.652;2024-03-02T03:08:15;9.84;86.73
68450;SHT30;67758;39.572;2.652;2024-03-02T03:10:42;9.73;86.57
68450;SHT30;67758;39.572;2.652;2024-03-02T03:13:07;9.76;86.62
68450;SHT30;67758;39.572;2.652;2024-03-02T03:15:36;9.64;86.54
68450;SHT30;67758;39.572;2.652;2024-03-02T03:18:05;9.59;86.75
68450;SHT30;67758;39.572;2.652;2024-03-02T03:20:32;9.69;87.42
68450;SHT30;67758;39.572;2.652;2024-03-02T03:22:59;9.70;87.41
68450;SHT30;67758;39.572;2.652;2024-03-02T03:25:25;9.77;87.32
68450;SHT30;67758;39.572;2.652;2024-03-02T03:27:50;9.82;87.08
68450;SHT30;67758;39.572;2.652;2024-03-02T03:30:18;9.82;87.28
68450;SHT30;67758;39.572;2.652;2024-03-02T03:32:44;9.86;87.51
68450;SHT30;67758;39.572;2.652;2024-03-02T03:35:09;9.83;86.92
68450;SHT30;67758;39.572;2.652;2024-03-02T03:37:35;9.76;87.03
68450;SHT30;67758;39.572;2.652;2024-03-02T03:40:02;9.76;87.35
68450;SHT30;67758;39.572;2.652;2024-03-02T03:42:28;9.74;87.23
68450;SHT30;67758;39.572;2.652;2024-03-02T03:44:54;9.91;87.69
68450;SHT30;67758;39.572;2.652;2024-03-02T03:47:19;9.86;87.06
68450;SHT30;67758;39.572;2.652;2024-03-02T03:49:45;9.80;86.83
68450;SHT30;67758;39.572;2.652;2024-03-02T03:52:11;9.76;86.92
68450;SHT30;67758;39.572;2.652;2024-03-02T03:54:37;9.73;87.16
68450;SHT30;67758;39.572;2.652;2024-03-02T03:57:04;9.70;87.27
68450;SHT30;67758;39.572;2.652;2024-03-02T03:59:30;9.72;87.06
68450;SHT30;67758;39.572;2.652;2024-03-02T04:01:56;9.72;87.15
68450;SHT30;67758;39.572;2.652;2024-03-02T04:04:21;9.82;87.58
68450;SHT30;67758;39.572;2.652;2024-03-02T04:06:47;9.77;87.30
68450;SHT30;67758;39.572;2.652;2024-03-02T04:09:13;9.77;86.96
68450;SHT30;67758;39.572;2.652;2024-03-02T04:11:39;9.80;86.94
68450;SHT30;67758;39.572;2.652;2024-03-02T04:14:04;9.79;86.93
68450;SHT30;67758;39.572;2.652;2024-03-02T04:16:31;9.86;86.79
68450;SHT30;67758;39.572;2.652;2024-03-02T04:18:57;9.77;86.72
68450;SHT30;67758;39.572;2.652;2024-03-02T04:21:22;9.74;86.79
68450;SHT30;67758;39.572;2.652;2024-03-02T04:23:48;9.70;86.81
68450;SHT30;67758;39.572;2.652;2024-03-02T04:26:14;9.67;87.35
68450;SHT30;67758;39.572;2.652;2024-03-02T04:28:40;9.74;87.49
68450;SHT30;67758;39.572;2.652;2024-03-02T04:31:06;9.73;87.01
68450;SHT30;67758;39.572;2.652;2024-03-02T04:33:31;9.72;86.76
68450;SHT30;67758;39.572;2.652;2024-03-02T04:35:57;9.77;86.66
68450;SHT30;67758;39.572;2.652;2024-03-02T04:38:23;9.72;86.57
68450;SHT30;67758;39.572;2.652;2024-03-02T04:40:48;9.87;86.19
68450;SHT30;67758;39.572;2.652;2024-03-02T04:43:14;9.87;86.28
68450;SHT30;67758;39.572;2.652;2024-03-02T04:45:42;9.87;86.22
68450;SHT30;67758;39.572;2.652;2024-03-02T04:48:08;9.87;86.00
68450;SHT30;67758;39.572;2.652;2024-03-02T04:50:33;10.04;85.76
68450;SHT30;67758;39.572;2.652;2024-03-02T04:52:59;10.10;85.17
68450;SHT30;67758;39.572;2.652;2024-03-02T04:55:25;10.35;84.10
68450;SHT30;67758;39.572;2.652;2024-03-02T04:58:11;10.54;82.88
68450;SHT30;67758;39.572;2.652;2024-03-02T05:00:36;10.59;82.60
68450;SHT30;67758;39.572;2.652;2024-03-02T05:03:02;10.56;82.50
68450;SHT30;67758;39.572;2.652;2024-03-02T05:05:28;10.49;82.95
68450;SHT30;67758;39.572;2.652;2024-03-02T05:07:53;10.49;83.21
68450;SHT30;67758;39.572;2.652;2024-03-02T05:10:19;10.62;82.63
68450;SHT30;67758;39.572;2.652;2024-03-02T05:12:45;10.83;82.33
68450;SHT30;67758;39.572;2.652;2024-03-02T05:15:12;11.50;81.16
68450;SHT30;67758;39.572;2.652;2024-03-02T05:17:38;11.95;79.71
68450;SHT30;67758;39.572;2.652;2024-03-02T05:20:06;11.95;79.06
68450;SHT30;67758;39.572;2.652;2024-03-02T05:22:33;11.85;79.27
68450;SHT30;67758;39.572;2.652;2024-03-02T05:24:59;12.04;78.93
68450;SHT30;67758;39.572;2.652;2024-03-02T05:27:26;12.05;78.91
68450;SHT30;67758;39.572;2.652;2024-03-02T05:29:52;11.97;78.42
68450;SHT30;67758;39.572;2.652;2024-03-02T05:32:18;11.89;78.48
68450;SHT30;67758;39.572;2.652;2024-03-02T05:34:43;11.92;78.28
68450;SHT30;67758;39.572;2.652;2024-03-02T05:37:09;12.08;77.98
68450;SHT30;67758;39.572;2.652;2024-03-02T05:39:34;12.05;78.03
68450;SHT30;67758;39.572;2.652;2024-03-02T05:42:00;12.09;78.19
68450;SHT30;67758;39.572;2.652;2024-03-02T05:44:26;12.12;78.07
68450;SHT30;67758;39.572;2.652;2024-03-02T05:46:51;12.12;78.35
68450;SHT30;67758;39.572;2.652;2024-03-02T05:49:17;12.02;78.51
68450;SHT30;67758;39.572;2.652;2024-03-02T05:51:43;11.91;78.74
68450;SHT30;67758;39.572;2.652;2024-03-02T05:54:09;11.95;78.68
68450;SHT30;67758;39.572;2.652;2024-03-02T05:56:35;11.95;78.95
68450;SHT30;67758;39.572;2.652;2024-03-02T05:59:00;12.06;78.40
68450;SHT30;67758;39.572;2.652;2024-03-02T06:01:38;12.11;78.17
68450;SHT30;67758;39.572;2.652;2024-03-02T06:04:04;12.06;78.41
68450;SHT30;67758;39.572;2.652;2024-03-02T06:06:29;12.08;78.46
68450;SHT30;67758;39.572;2.652;2024-03-02T06:08:55;12.17;78.14
68450;SHT30;67758;39.572;2.652;2024-03-02T06:11:21;12.15;78.23
68450;SHT30;67758;39.572;2.652;2024-03-02T06:13:47;12.24;77.96
68450;SHT30;67758;39.572;2.652;2024-03-02T06:16:12;12.30;77.78
68450;SHT30;67758;39.572;2.652;2024-03-02T06:18:38;12.38;77.47
68450;SHT30;67758;39.572;2.652;2024-03-02T06:21:04;12.56;76.49
68450;SHT30;67758;39.572;2.652;2024-03-02T06:23:30;12.57;76.30
68450;SHT30;67758;39.572;2.652;2024-03-02T06:25:55;12.60;76.06
68450;SHT30;67758;39.572;2.652;2024-03-02T06:28:21;12.69;75.67
68450;SHT30;67758;39.572;2.652;2024-03-02T06:30:46;12.67;75.89
68450;SHT30;67758;39.572;2.652;2024-03-02T06:33:12;12.81;75.44
68450;SHT30;67758;39.572;2.652;2024-03-02T06:35:38;12.69;75.86
68450;SHT30;67758;39.572;2.652;2024-03-02T06:38:04;12.70;75.76
68450;SHT30;67758;39.572;2.652;2024-03-02T06:40:29;12.67;75.96
68450;SHT30;67758;39.572;2.652;2024-03-02T06:42:55;12.63;76.12
68450;SHT30;67758;39.572;2.652;2024-03-02T06:45:21;12.60;76.35
68450;SHT30;67758;39.572;2.652;2024-03-02T06:47:46;12.53;76.59
68450;SHT30;67758;39.572;2.652;2024-03-02T06:50:12;12.66;76.13
68450;SHT30;67758;39.572;2.652;2024-03-02T06:52:39;12.66;76.04
68450;SHT30;67758;39.572;2.652;2024-03-02T06:55:05;12.63;76.08
68450;SHT30;67758;39.572;2.652;2024-03-02T06:57:31;12.59;76.38
68450;SHT30;67758;39.572;2.652;2024-03-02T06:59:56;12.62;76.66
68450;SHT30;67758;39.572;2.652;2024-03-02T07:02:26;12.59;76.75
68450;SHT30;67758;39.572;2.652;2024-03-02T07:04:53;12.60;77.14
68450;SHT30;67758;39.572;2.652;2024-03-02T07:07:18;12.60;77.29
68450;SHT30;67758;39.572;2.652;2024-03-02T07:09:44;12.63;77.23
68450;SHT30;67758;39.572;2.652;2024-03-02T07:12:10;12.66;77.20
68450;SHT30;67758;39.572;2.652;2024-03-02T07:14:35;12.72;77.35
68450;SHT30;67758;39.572;2.652;2024-03-02T07:17:30;12.79;77.30
68450;SHT30;67758;39.572;2.652;2024-03-02T07:19:56;12.80;77.74
68450;SHT30;67758;39.572;2.652;2024-03-02T07:22:22;12.89;77.69
68450;SHT30;67758;39.572;2.652;2024-03-02T07:24:48;12.99;77.72
68450;SHT30;67758;39.572;2.652;2024-03-02T07:27:15;12.99;77.00
68450;SHT30;67758;39.572;2.652;2024-03-02T07:29:41;12.99;77.14
68450;SHT30;67758;39.572;2.652;2024-03-02T07:32:07;12.91;77.35
68450;SHT30;67758;39.572;2.652;2024-03-02T07:34:34;12.94;77.17
68450;SHT30;67758;39.572;2.652;2024-03-02T07:36:59;13.08;76.57
68450;SHT30;67758;39.572;2.652;2024-03-02T07:39:28;13.24;76.12
68450;SHT30;67758;39.572;2.652;2024-03-02T07:41:54;13.32;76.31
68450;SHT30;67758;39.572;2.652;2024-03-02T07:44:26;13.40;76.06
68450;SHT30;67758;39.572;2.652;2024-03-02T07:46:51;13.48;75.55
68450;SHT30;67758;39.572;2.652;2024-03-02T07:49:18;13.58;75.25
68450;SHT30;67758;39.572;2.652;2024-03-02T07:51:44;13.66;73.17
68450;SHT30;67758;39.572;2.652;2024-03-02T07:54:10;13.76;72.92
68450;SHT30;67758;39.572;2.652;2024-03-02T07:56:36;13.74;73.27
68450;SHT30;67758;39.572;2.652;2024-03-02T07:59:02;13.78;73.43
68450;SHT30;67758;39.572;2.652;2024-03-02T08:01:32;13.83;72.93
68450;SHT30;67758;39.572;2.652;2024-03-02T08:03:58;13.92;70.93
68450;SHT30;67758;39.572;2.652;2024-03-02T08:06:26;14.03;70.14
68450;SHT30;67758;39.572;2.652;2024-03-02T08:09:00;14.12;69.77
68450;SHT30;67758;39.572;2.652;2024-03-02T08:11:26;14.13;70.39
68450;SHT30;67758;39.572;2.652;2024-03-02T08:13:56;14.15;69.62
68450;SHT30;67758;39.572;2.652;2024-03-02T08:16:22;14.29;68.04
68450;SHT30;67758;39.572;2.652;2024-03-02T08:18:49;14.36;68.02
68450;SHT30;67758;39.572;2.652;2024-03-02T08:21:15;14.40;68.45
68450;SHT30;67758;39.572;2.652;2024-03-02T08:23:42;14.40;69.02
68450;SHT30;67758;39.572;2.652;2024-03-02T08:26:11;14.40;69.98
68450;SHT30;67758;39.572;2.652;2024-03-02T08:28:37;14.41;70.26
68450;SHT30;67758;39.572;2.652;2024-03-02T08:31:03;14.44;70.22
68450;SHT30;67758;39.572;2.652;2024-03-02T08:33:29;14.46;70.44
68450;SHT30;67758;39.572;2.652;2024-03-02T08:35:55;14.50;70.72
68450;SHT30;67758;39.572;2.652;2024-03-02T08:38:21;14.44;70.47
68450;SHT30;67758;39.572;2.652;2024-03-02T08:40:47;14.40;69.45
68450;SHT30;67758;39.572;2.652;2024-03-02T08:43:13;14.43;69.75
68450;SHT30;67758;39.572;2.652;2024-03-02T08:45:39;14.43;70.92
68450;SHT30;67758;39.572;2.652;2024-03-02T08:48:07;14.40;71.12
68450;SHT30;67758;39.572;2.652;2024-03-02T08:50:34;14.44;71.12
68450;SHT30;67758;39.572;2.652;2024-03-02T08:53:00;14.43;71.06
68450;SHT30;67758;39.572;2.652;2024-03-02T08:55:26;14.37;69.88
68450;SHT30;67758;39.572;2.652;2024-03-02T08:57:52;14.36;70.80
68450;SHT30;67758;39.572;2.652;2024-03-02T09:00:18;14.37;71.11
68450;SHT30;67758;39.572;2.652;2024-03-02T09:02:44;14.33;71.04
68450;SHT30;67758;39.572;2.652;2024-03-02T09:05:10;14.38;70.74
68450;SHT30;67758;39.572;2.652;2024-03-02T09:07:36;14.43;70.46
68450;SHT30;67758;39.572;2.652;2024-03-02T09:10:01;14.41;70.13
68450;SHT30;67758;39.572;2.652;2024-03-02T09:12:27;14.47;70.21
68450;SHT30;67758;39.572;2.652;2024-03-02T09:14:52;14.48;69.89
68450;SHT30;67758;39.572;2.652;2024-03-02T09:17:18;14.51;68.65
68450;SHT30;67758;39.572;2.652;2024-03-02T09:19:43;14.57;69.10
68450;SHT30;67758;39.572;2.652;2024-03-02T09:22:09;14.63;70.17
68450;SHT30;67758;39.572;2.652;2024-03-02T09:24:35;14.61;69.09
68450;SHT30;67758;39.572;2.652;2024-03-02T09:27:00;14.73;69.25
68450;SHT30;67758;39.572;2.652;2024-03-02T09:29:26;14.80;68.35
68450;SHT30;67758;39.572;2.652;2024-03-02T09:31:52;14.88;69.01
68450;SHT30;67758;39.572;2.652;2024-03-02T09:34:17;14.95;69.30
68450;SHT30;67758;39.572;2.652;2024-03-02T09:36:43;14.92;68.94
68450;SHT30;67758;39.572;2.652;2024-03-02T09:39:09;14.99;69.18
68450;SHT30;67758;39.572;2.652;2024-03-02T09:41:36;15.07;69.23
68450;SHT30;67758;39.572;2.652;2024-03-02T09:44:03;15.09;68.41
68450;SHT30;67758;39.572;2.652;2024-03-02T09:46:28;15.15;67.12
68450;SHT30;67758;39.572;2.652;2024-03-02T09:48:54;15.25;67.39
68450;SHT30;67758;39.572;2.652;2024-03-02T09:51:20;15.24;66.43
68450;SHT30;67758;39.572;2.652;2024-03-02T09:53:46;15.34;64.93
68450;SHT30;67758;39.572;2.652;2024-03-02T09:56:12;15.35;66.21
68450;SHT30;67758;39.572;2.652;2024-03-02T09:58:39;15.56;65.40
68450;SHT30;67758;39.572;2.652;2024-03-02T10:01:08;15.59;65.19
68450;SHT30;67758;39.572;2.652;2024-03-02T10:03:36;15.80;65.71
68450;SHT30;67758;39.572;2.652;2024-03-02T10:08:46;15.83;66.37
68450;SHT30;67758;39.572;2.652;2024-03-02T10:11:34;15.69;66.97
68450;SHT30;67758;39.572;2.652;2024-03-02T10:16:44;15.91;66.58
68450;SHT30;67758;39.572;2.652;2024-03-02T10:19:21;15.91;65.80
68450;SHT30;67758;39.572;2.652;2024-03-02T10:21:50;16.00;66.80
68450;SHT30;67758;39.572;2.652;2024-03-02T10:24:17;15.97;67.19
68450;SHT30;67758;39.572;2.652;2024-03-02T10:26:43;16.04;66.56
68450;SHT30;67758;39.572;2.652;2024-03-02T10:29:10;16.16;66.30
68450;SHT30;67758;39.572;2.652;2024-03-02T10:31:40;17.18;62.63
68450;SHT30;67758;39.572;2.652;2024-03-02T10:34:07;18.31;60.72
68450;SHT30;67758;39.572;2.652;2024-03-02T10:36:36;18.36;58.15
68450;SHT30;67758;39.572;2.652;2024-03-02T10:39:03;18.95;57.19
68450;SHT30;67758;39.572;2.652;2024-03-02T10:41:32;18.89;55.91
68450;SHT30;67758;39.572;2.652;2024-03-02T10:43:59;19.28;54.99
68450;SHT30;67758;39.572;2.652;2024-03-02T10:46:29;19.21;55.20
68450;SHT30;67758;39.572;2.652;2024-03-02T10:48:56;19.20;54.68
68450;SHT30;67758;39.572;2.652;2024-03-02T10:51:27;19.35;54.93
68450;SHT30;67758;39.572;2.652;2024-03-02T10:54:02;19.54;54.53
68450;SHT30;67758;39.572;2.652;2024-03-02T10:56:32;19.55;54.60
68450;SHT30;67758;39.572;2.652;2024-03-02T10:59:03;19.96;55.13
68450;SHT30;67758;39.572;2.652;2024-03-02T11:01:32;20.22;55.58
68450;SHT30;67758;39.572;2.652;2024-03-02T11:03:58;19.89;56.75
68450;SHT30;67758;39.572;2.652;2024-03-02T11:06:26;20.15;54.82
68450;SHT30;67758;39.572;2.652;2024-03-02T11:08:55;20.32;56.16
68450;SHT30;67758;39.572;2.652;2024-03-02T11:11:30;19.77;56.04
68450;SHT30;67758;39.572;2.652;2024-03-02T11:14:01;19.72;56.30
68450;SHT30;67758;39.572;2.652;2024-03-02T11:16:35;18.95;56.90
68450;SHT30;67758;39.572;2.652;2024-03-02T11:19:12;19.21;57.24
68450;SHT30;67758;39.572;2.652;2024-03-02T11:21:38;19.44;56.33
68450;SHT30;67758;39.572;2.652;2024-03-02T11:26:52;19.59;57.17
68450;SHT30;67758;39.572;2.652;2024-03-02T11:32:26;19.62;56.81
68450;SHT30;67758;39.572;2.652;2024-03-02T11:34:51;19.47;57.31
68450;SHT30;67758;39.572;2.652;2024-03-02T11:37:18;19.46;56.79
68450;SHT30;67758;39.572;2.652;2024-03-02T11:39:46;20.06;55.38
68450;SHT30;67758;39.572;2.652;2024-03-02T11:42:14;19.81;54.50
68450;SHT30;67758;39.572;2.652;2024-03-02T11:44:43;19.54;56.41
68450;SHT30;67758;39.572;2.652;2024-03-02T11:47:13;20.28;55.38
68450;SHT30;67758;39.572;2.652;2024-03-02T11:49:44;19.85;57.39
68450;SHT30;67758;39.572;2.652;2024-03-02T11:52:12;20.19;57.09
68450;SHT30;67758;39.572;2.652;2024-03-02T11:54:39;20.30;55.67
68450;SHT30;67758;39.572;2.652;2024-03-02T11:57:08;20.49;55.68
68450;SHT30;67758;39.572;2.652;2024-03-02T11:59:34;20.42;56.11
68450;SHT30;67758;39.572;2.652;2024-03-02T12:02:00;19.81;57.64
68450;SHT30;67758;39.572;2.652;2024-03-02T12:04:26;20.37;57.24
68450;SHT30;67758;39.572;2.652;2024-03-02T12:06:56;20.34;56.93
68450;SHT30;67758;39.572;2.652;2024-03-02T12:09:25;20.08;57.51
68450;SHT30;67758;39.572;2.652;2024-03-02T12:12:08;19.96;58.80
68450;SHT30;67758;39.572;2.652;2024-03-02T12:14:36;19.78;57.84
68450;SHT30;67758;39.572;2.652;2024-03-02T12:17:02;19.96;58.51
68450;SHT30;67758;39.572;2.652;2024-03-02T12:19:28;19.82;59.20
68450;SHT30;67758;39.572;2.652;2024-03-02T12:22:01;19.85;60.32
68450;SHT30;67758;39.572;2.652;2024-03-02T12:24:28;20.28;60.00
68450;SHT30;67758;39.572;2.652;2024-03-02T12:26:54;19.99;58.75
68450;SHT30;67758;39.572;2.652;2024-03-02T12:29:21;20.23;59.70
68450;SHT30;67758;39.572;2.652;2024-03-02T12:31:52;20.33;60.00
68450;SHT30;67758;39.572;2.652;2024-03-02T12:34:19;20.39;60.14
68450;SHT30;67758;39.572;2.652;2024-03-02T12:36:50;19.72;61.12
68450;SHT30;67758;39.572;2.652;2024-03-02T12:39:30;19.62;62.35
68450;SHT30;67758;39.572;2.652;2024-03-02T12:41:58;19.55;63.14
68450;SHT30;67758;39.572;2.652;2024-03-02T12:44:23;19.38;63.81
68450;SHT30;67758;39.572;2.652;2024-03-02T12:46:49;19.59;63.47
68450;SHT30;67758;39.572;2.652;2024-03-02T12:49:15;19.20;66.12
68450;SHT30;67758;39.572;2.652;2024-03-02T12:51:46;18.85;66.50
68450;SHT30;67758;39.572;2.652;2024-03-02T12:54:17;19.47;66.00
68450;SHT30;67758;39.572;2.652;2024-03-02T12:56:43;19.18;66.87
68450;SHT30;67758;39.572;2.652;2024-03-02T12:59:24;18.97;67.12
68450;SHT30;67758;39.572;2.652;2024-03-02T13:02:00;19.00;67.94
68450;SHT30;67758;39.572;2.652;2024-03-02T13:04:28;19.21;67.62
68450;SHT30;67758;39.572;2.652;2024-03-02T13:06:55;18.90;67.66
68450;SHT30;67758;39.572;2.652;2024-03-02T13:09:25;18.76;67.71
68450;SHT30;67758;39.572;2.652;2024-03-02T13:11:52;18.26;69.94
68450;SHT30;67758;39.572;2.652;2024-03-02T13:14:17;18.48;69.96
68450;SHT30;67758;39.572;2.652;2024-03-02T13:16:44;18.72;68.64
68450;SHT30;67758;39.572;2.652;2024-03-02T13:19:13;19.23;67.70
68450;SHT30;67758;39.572;2.652;2024-03-02T13:21:38;19.78;66.36
68450;SHT30;67758;39.572;2.652;2024-03-02T13:24:05;19.20;66.82
68450;SHT30;67758;39.572;2.652;2024-03-02T13:26:32;19.71;66.73
68450;SHT30;67758;39.572;2.652;2024-03-02T13:28:57;19.78;66.15
68450;SHT30;67758;39.572;2.652;2024-03-02T13:31:23;19.81;65.38
68450;SHT30;67758;39.572;2.652;2024-03-02T13:33:48;19.16;65.53
68450;SHT30;67758;39.572;2.652;2024-03-02T13:36:14;19.11;66.30
68450;SHT30;67758;39.572;2.652;2024-03-02T13:38:41;19.14;66.75
68450;SHT30;67758;39.572;2.652;2024-03-02T13:41:07;19.28;65.96
68450;SHT30;67758;39.572;2.652;2024-03-02T13:43:34;19.20;66.12
68450;SHT30;67758;39.572;2.652;2024-03-02T13:46:02;18.70;66.54
68450;SHT30;67758;39.572;2.652;2024-03-02T13:48:27;18.67;66.49
68450;SHT30;67758;39.572;2.652;2024-03-02T13:50:53;18.19;68.05
68450;SHT30;67758;39.572;2.652;2024-03-02T13:53:19;18.02;68.15
68450;SHT30;67758;39.572;2.652;2024-03-02T13:55:45;17.85;68.98
68450;SHT30;67758;39.572;2.652;2024-03-02T13:58:16;17.77;67.26
68450;SHT30;67758;39.572;2.652;2024-03-02T14:00:45;17.94;67.37
68450;SHT30;67758;39.572;2.652;2024-03-02T14:03:10;18.18;66.16
68450;SHT30;67758;39.572;2.652;2024-03-02T14:05:37;17.95;66.35
68450;SHT30;67758;39.572;2.652;2024-03-02T14:08:02;18.02;65.93
68450;SHT30;67758;39.572;2.652;2024-03-02T14:10:29;17.69;66.81
68450;SHT30;67758;39.572;2.652;2024-03-02T14:12:55;17.83;67.13
68450;SHT30;67758;39.572;2.652;2024-03-02T14:15:21;17.67;66.70
68450;SHT30;67758;39.572;2.652;2024-03-02T14:17:47;17.64;65.91
68450;SHT30;67758;39.572;2.652;2024-03-02T14:20:12;17.44;65.96
68450;SHT30;67758;39.572;2.652;2024-03-02T14:22:39;17.36;66.21
68450;SHT30;67758;39.572;2.652;2024-03-02T14:25:05;17.53;66.57
68450;SHT30;67758;39.572;2.652;2024-03-02T14:27:30;17.71;65.92
68450;SHT30;67758;39.572;2.652;2024-03-02T14:29:56;17.60;65.82
68450;SHT30;67758;39.572;2.652;2024-03-02T14:32:22;17.98;64.69
68450;SHT30;67758;39.572;2.652;2024-03-02T14:34:47;17.80;65.60
68450;SHT30;67758;39.572;2.652;2024-03-02T14:37:14;17.30;66.67
68450;SHT30;67758;39.572;2.652;2024-03-02T14:39:40;16.93;67.34
68450;SHT30;67758;39.572;2.652;2024-03-02T14:42:06;16.78;67.79
68450;SHT30;67758;39.572;2.652;2024-03-02T14:44:33;17.02;68.19
68450;SHT30;67758;39.572;2.652;2024-03-02T14:47:01;17.66;67.47
68450;SHT30;67758;39.572;2.652;2024-03-02T14:49:27;17.57;67.88
68450;SHT30;67758;39.572;2.652;2024-03-02T14:51:53;17.54;67.79
68450;SHT30;67758;39.572;2.652;2024-03-02T14:54:18;17.27;67.60
68450;SHT30;67758;39.572;2.652;2024-03-02T14:56:44;16.99;69.44
68450;SHT30;67758;39.572;2.652;2024-03-02T14:59:09;17.03;69.49
68450;SHT30;67758;39.572;2.652;2024-03-02T15:01:39;16.85;68.07
68450;SHT30;67758;39.572;2.652;2024-03-02T15:04:04;16.83;67.87
68450;SHT30;67758;39.572;2.652;2024-03-02T15:06:30;16.91;67.74
68450;SHT30;67758;39.572;2.652;2024-03-02T15:08:56;16.85;67.22
68450;SHT30;67758;39.572;2.652;2024-03-02T15:11:22;16.96;66.56
68450;SHT30;67758;39.572;2.652;2024-03-02T15:13:48;17.12;65.22
68450;SHT30;67758;39.572;2.652;2024-03-02T15:16:14;16.82;66.46
68450;SHT30;67758;39.572;2.652;2024-03-02T15:18:39;16.83;67.01
68450;SHT30;67758;39.572;2.652;2024-03-02T15:21:05;17.18;65.37
68450;SHT30;67758;39.572;2.652;2024-03-02T15:23:31;17.30;64.85
68450;SHT30;67758;39.572;2.652;2024-03-02T15:25:56;16.71;65.98
68450;SHT30;67758;39.572;2.652;2024-03-02T15:28:22;16.50;67.22
68450;SHT30;67758;39.572;2.652;2024-03-02T15:30:48;16.38;66.67
68450;SHT30;67758;39.572;2.652;2024-03-02T15:33:13;16.48;66.58
68450;SHT30;67758;39.572;2.652;2024-03-02T15:35:39;16.62;66.72
68450;SHT30;67758;39.572;2.652;2024-03-02T15:38:05;16.50;68.32
68450;SHT30;67758;39.572;2.652;2024-03-02T15:40:31;16.82;68.34
68450;SHT30;67758;39.572;2.652;2024-03-02T15:42:56;17.06;67.27
68450;SHT30;67758;39.572;2.652;2024-03-02T15:45:22;17.64;66.46